createdAt,value
2022-07-25T00:02:21.016Z,1.92
2022-07-25T00:04:49.349Z,2.15
2022-07-25T00:07:17.516Z,1.75
2022-07-25T00:09:45.461Z,2.03
2022-07-25T00:12:14.066Z,1.95
2022-07-25T00:14:43.439Z,1.75
2022-07-25T00:17:11.440Z,2.05
2022-07-25T00:19:39.445Z,1.98
2022-07-25T00:22:07.509Z,1.55
2022-07-25T00:24:35.556Z,1.65
2022-07-25T00:27:03.822Z,1.38
2022-07-25T00:29:31.700Z,1.60
2022-07-25T00:32:01.048Z,1.92
2022-07-25T00:34:28.950Z,1.88
2022-07-25T00:36:56.833Z,1.42
2022-07-25T00:39:24.707Z,1.33
2022-07-25T00:41:52.652Z,1.33
2022-07-25T00:44:25.087Z,2.00
2022-07-25T00:46:53.507Z,1.70
2022-07-25T00:49:22.979Z,1.83
2022-07-25T00:51:51.470Z,1.70
2022-07-25T00:54:20.066Z,1.92
2022-07-25T00:56:49.656Z,1.65
2022-07-25T00:59:17.709Z,1.80
2022-07-25T01:01:48.241Z,2.00
2022-07-25T01:06:46.098Z,1.95
2022-07-25T01:09:14.696Z,1.42
2022-07-25T01:11:42.633Z,1.90
2022-07-25T01:14:10.523Z,1.95
2022-07-25T01:16:38.522Z,2.00
2022-07-25T01:19:06.501Z,1.73
2022-07-25T01:21:39.117Z,2.20
2022-07-25T01:24:08.650Z,1.85
2022-07-25T01:26:37.150Z,1.50
2022-07-25T01:29:05.291Z,1.95
2022-07-25T01:31:33.491Z,1.67
2022-07-25T01:34:01.423Z,2.15
2022-07-25T01:36:29.479Z,1.98
2022-07-25T01:38:58.690Z,1.50
2022-07-25T01:41:26.603Z,1.67
2022-07-25T01:43:54.517Z,2.17
2022-07-25T01:46:22.423Z,1.67
2022-07-25T01:48:50.516Z,2.28
2022-07-25T01:51:20.471Z,1.83
2022-07-25T01:53:48.903Z,1.85
2022-07-25T01:56:20.840Z,1.27
2022-07-25T01:58:50.391Z,1.92
2022-07-25T02:01:19.395Z,2.13
2022-07-25T02:03:49.800Z,1.90
2022-07-25T02:06:19.192Z,2.08
2022-07-25T02:08:47.051Z,2.72
2022-07-25T02:11:15.037Z,2.20
2022-07-25T02:13:44.623Z,2.13
2022-07-25T02:16:12.901Z,1.98
2022-07-25T02:18:40.852Z,2.13
2022-07-25T02:21:14.563Z,1.95
2022-07-25T02:23:42.983Z,2.30
2022-07-25T02:26:10.999Z,1.88
2022-07-25T02:28:38.939Z,1.85
2022-07-25T02:31:09.241Z,2.45
2022-07-25T02:33:37.637Z,1.98
2022-07-25T02:36:05.801Z,1.67
2022-07-25T02:38:33.767Z,2.10
2022-07-25T02:41:01.761Z,2.67
2022-07-25T02:43:29.670Z,2.17
2022-07-25T02:45:57.811Z,2.30
2022-07-25T02:48:27.161Z,1.90
2022-07-25T02:50:55.121Z,1.70
2022-07-25T02:53:40.294Z,1.58
2022-07-25T02:56:10.877Z,2.20
2022-07-25T02:58:39.424Z,2.03
2022-07-25T03:01:07.879Z,2.00
2022-07-25T03:03:37.341Z,2.20
2022-07-25T03:06:05.750Z,2.00
2022-07-25T03:08:33.660Z,2.00
2022-07-25T03:11:01.588Z,2.15
2022-07-25T03:13:29.824Z,2.50
2022-07-25T03:15:57.762Z,1.67
2022-07-25T03:18:25.611Z,1.80
2022-07-25T03:20:54.920Z,1.80
2022-07-25T03:23:24.967Z,1.80
2022-07-25T03:25:52.833Z,2.50
2022-07-25T03:28:20.768Z,1.77
2022-07-25T03:30:48.654Z,2.10
2022-07-25T03:33:16.494Z,1.95
2022-07-25T03:35:46.912Z,1.88
2022-07-25T03:38:16.119Z,2.35
2022-07-25T03:40:44.125Z,2.15
2022-07-25T03:43:12.027Z,2.28
2022-07-25T03:45:40.137Z,1.70
2022-07-25T03:48:08.227Z,1.90
2022-07-25T03:50:36.183Z,2.13
2022-07-25T03:53:04.098Z,1.65
2022-07-25T03:55:33.372Z,1.48
2022-07-25T03:58:01.264Z,2.47
2022-07-25T04:00:29.247Z,2.40
2022-07-25T04:02:57.954Z,1.83
2022-07-25T04:05:25.978Z,2.30
2022-07-25T04:07:53.820Z,2.20
2022-07-25T04:10:21.907Z,2.22
2022-07-25T04:12:51.193Z,1.70
2022-07-25T04:15:19.159Z,2.00
2022-07-25T04:17:47.117Z,2.60
2022-07-25T04:20:15.003Z,2.17
2022-07-25T04:22:46.948Z,2.50
2022-07-25T04:25:15.147Z,1.88
2022-07-25T04:27:43.359Z,1.77
2022-07-25T04:30:13.976Z,2.45
2022-07-25T04:32:52.095Z,2.10
2022-07-25T04:35:19.985Z,2.10
2022-07-25T04:37:47.883Z,2.50
2022-07-25T04:40:15.849Z,1.60
2022-07-25T04:42:43.791Z,2.35
2022-07-25T04:45:13.931Z,1.80
2022-07-25T04:47:45.872Z,1.92
2022-07-25T04:50:13.896Z,2.10
2022-07-25T04:52:41.875Z,1.92
2022-07-25T04:55:10.363Z,1.92
2022-07-25T04:57:38.547Z,2.40
2022-07-25T05:00:08.880Z,2.30
2022-07-25T05:02:38.546Z,2.20
2022-07-25T05:05:08.472Z,2.15
2022-07-25T05:07:49.206Z,2.00
2022-07-25T05:10:17.286Z,2.40
2022-07-25T05:12:45.151Z,2.00
2022-07-25T05:15:13.527Z,2.50
2022-07-25T05:17:42.754Z,2.65
2022-07-25T05:20:12.116Z,2.40
2022-07-25T05:22:40.054Z,2.30
2022-07-25T05:25:10.115Z,2.22
2022-07-25T05:27:39.743Z,2.10
2022-07-25T05:30:10.339Z,2.40
2022-07-25T05:32:38.515Z,2.10
2022-07-25T05:35:09.865Z,1.90
2022-07-25T05:37:38.885Z,2.00
2022-07-25T05:40:08.395Z,2.38
2022-07-25T05:42:36.842Z,2.42
2022-07-25T05:45:05.482Z,2.17
2022-07-25T05:47:33.471Z,2.22
2022-07-25T05:50:02.267Z,2.28
2022-07-25T05:52:31.517Z,1.92
2022-07-25T05:54:59.617Z,2.40
2022-07-25T05:57:27.551Z,2.40
2022-07-25T05:59:55.462Z,2.38
2022-07-25T06:02:23.568Z,2.45
2022-07-25T06:04:51.618Z,1.58
2022-07-25T06:07:19.594Z,2.55
2022-07-25T06:09:48.865Z,2.22
2022-07-25T06:12:16.770Z,2.08
2022-07-25T06:14:45.438Z,2.10
2022-07-25T06:17:13.649Z,2.28
2022-07-25T06:19:41.710Z,2.72
2022-07-25T06:22:11.194Z,2.40
2022-07-25T06:24:39.216Z,2.03
2022-07-25T06:27:09.283Z,2.05
2022-07-25T06:29:38.130Z,2.00
2022-07-25T06:32:06.629Z,2.42
2022-07-25T06:34:34.682Z,2.20
2022-07-25T06:37:02.606Z,2.28
2022-07-25T06:39:30.773Z,2.03
2022-07-25T06:41:59.719Z,2.00
2022-07-25T06:44:28.975Z,2.85
2022-07-25T06:46:57.012Z,2.15
2022-07-25T06:49:24.985Z,2.28
2022-07-25T06:51:52.910Z,2.33
2022-07-25T06:54:20.871Z,2.13
2022-07-25T06:56:48.749Z,2.30
2022-07-25T06:59:16.649Z,2.38
2022-07-25T07:01:51.007Z,2.10
2022-07-25T07:04:19.506Z,2.65
2022-07-25T07:06:47.381Z,2.33
2022-07-25T07:09:15.333Z,2.30
2022-07-25T07:11:43.251Z,2.50
2022-07-25T07:14:11.207Z,2.15
2022-07-25T07:16:41.336Z,2.75
2022-07-25T07:19:11.991Z,2.05
2022-07-25T07:21:39.899Z,2.50
2022-07-25T07:24:22.100Z,2.08
2022-07-25T07:26:51.520Z,2.03
2022-07-25T07:29:19.398Z,2.35
2022-07-25T07:31:47.356Z,2.45
2022-07-25T07:34:16.838Z,2.10
2022-07-25T07:36:44.712Z,3.08
2022-07-25T07:39:12.713Z,2.30
2022-07-25T07:41:43.763Z,2.05
2022-07-25T07:44:11.785Z,2.30
2022-07-25T07:46:39.806Z,2.03
2022-07-25T07:49:08.142Z,2.88
2022-07-25T07:51:37.612Z,2.42
2022-07-25T07:54:23.748Z,2.42
2022-07-25T07:56:51.750Z,2.30
2022-07-25T07:59:19.695Z,2.25
2022-07-25T08:01:47.673Z,2.20
2022-07-25T08:04:15.648Z,1.98
2022-07-25T08:06:44.987Z,2.30
2022-07-25T08:09:12.898Z,2.42
2022-07-25T08:11:40.915Z,2.22
2022-07-25T08:14:09.472Z,2.20
2022-07-25T08:16:37.883Z,2.22
2022-07-25T08:19:05.932Z,2.58
2022-07-25T08:21:33.942Z,1.85
2022-07-25T08:24:03.378Z,2.20
2022-07-25T08:26:33.823Z,2.70
2022-07-25T08:29:18.297Z,2.67
2022-07-25T08:31:47.084Z,2.22
2022-07-25T08:34:15.071Z,2.40
2022-07-25T08:36:43.206Z,2.20
2022-07-25T08:39:12.458Z,2.33
2022-07-25T08:41:41.741Z,2.08
2022-07-25T08:44:10.161Z,2.45
2022-07-25T08:46:41.578Z,2.38
2022-07-25T08:49:10.520Z,2.15
2022-07-25T08:51:39.667Z,2.10
2022-07-25T08:54:08.326Z,1.92
2022-07-25T08:56:37.975Z,2.45
2022-07-25T08:59:05.856Z,1.98
2022-07-25T09:01:35.143Z,1.88
2022-07-25T09:04:04.894Z,2.17
2022-07-25T09:06:33.371Z,1.95
2022-07-25T09:09:04.612Z,1.95
2022-07-25T09:11:35.854Z,2.17
2022-07-25T09:14:08.405Z,2.15
2022-07-25T09:16:40.119Z,1.90
2022-07-25T09:19:10.616Z,2.22
2022-07-25T09:21:40.669Z,2.10
2022-07-25T09:24:13.504Z,1.90
2022-07-25T09:26:48.696Z,2.20
2022-07-25T09:29:24.670Z,2.17
2022-07-25T09:31:54.933Z,2.00
2022-07-25T09:34:34.514Z,2.05
2022-07-25T09:37:03.389Z,2.13
2022-07-25T09:39:46.489Z,2.42
2022-07-25T09:42:21.600Z,2.08
2022-07-25T09:45:02.863Z,2.20
2022-07-25T09:47:31.611Z,1.88
2022-07-25T09:49:59.534Z,2.60
2022-07-25T09:52:27.792Z,2.08
2022-07-25T09:54:55.739Z,2.38
2022-07-25T09:57:25.800Z,2.45
2022-07-25T09:59:53.930Z,2.22
2022-07-25T10:02:40.373Z,2.53
2022-07-25T10:05:15.858Z,2.10
2022-07-25T10:07:47.357Z,2.10
2022-07-25T10:10:29.436Z,2.25
2022-07-25T10:13:05.234Z,2.47
2022-07-25T10:15:49.112Z,2.25
2022-07-25T10:18:20.662Z,1.95
2022-07-25T10:20:50.050Z,2.05
2022-07-25T10:23:20.102Z,2.00
2022-07-25T10:25:49.330Z,2.35
2022-07-25T10:28:20.897Z,2.70
2022-07-25T10:30:58.134Z,2.30
2022-07-25T10:33:27.652Z,1.90
2022-07-25T10:36:06.250Z,1.88
2022-07-25T10:38:34.504Z,1.95
2022-07-25T10:41:03.325Z,1.92
2022-07-25T10:43:38.670Z,2.03
2022-07-25T10:46:14.056Z,1.88
2022-07-25T10:48:43.485Z,1.92
2022-07-25T10:51:13.740Z,1.77
2022-07-25T10:53:48.318Z,1.55
2022-07-25T10:56:19.790Z,2.00
2022-07-25T10:58:51.281Z,1.90
2022-07-25T11:01:24.781Z,1.67
2022-07-25T11:03:55.470Z,2.00
2022-07-25T11:06:35.637Z,1.95
2022-07-25T11:09:04.932Z,1.50
2022-07-25T11:11:37.743Z,1.55
2022-07-25T11:14:06.655Z,1.95
2022-07-25T11:16:34.604Z,1.67
2022-07-25T11:19:04.283Z,1.40
2022-07-25T11:21:32.505Z,1.80
2022-07-25T11:24:00.397Z,1.80
2022-07-25T11:26:28.658Z,1.83
2022-07-25T11:28:56.551Z,1.92
2022-07-25T11:31:24.815Z,1.40
2022-07-25T11:33:52.960Z,1.60
2022-07-25T11:36:22.351Z,1.92
2022-07-25T11:38:50.512Z,1.45
2022-07-25T11:41:29.576Z,1.67
2022-07-25T11:43:57.705Z,1.60
2022-07-25T11:46:25.773Z,1.85
2022-07-25T11:49:05.874Z,1.80
2022-07-25T11:54:10.990Z,1.50
2022-07-25T11:56:43.033Z,1.73
2022-07-25T11:59:12.301Z,1.70
2022-07-25T12:01:41.805Z,1.95
2022-07-25T12:04:15.214Z,1.95
2022-07-25T12:06:46.129Z,1.60
2022-07-25T12:09:18.871Z,1.73
2022-07-25T12:11:48.438Z,1.95
2022-07-25T12:14:17.013Z,1.73
2022-07-25T12:16:45.168Z,2.00
2022-07-25T12:19:21.126Z,1.98
2022-07-25T12:21:50.408Z,2.25
2022-07-25T12:24:18.386Z,1.83
2022-07-25T12:26:46.250Z,1.80
2022-07-25T12:29:14.275Z,1.63
2022-07-25T12:31:42.167Z,1.90
2022-07-25T12:34:10.065Z,1.45
2022-07-25T12:36:43.741Z,1.80
2022-07-25T12:39:13.009Z,1.70
2022-07-25T12:41:42.424Z,1.63
2022-07-25T12:44:10.722Z,1.73
2022-07-25T12:46:40.230Z,1.75
2022-07-25T12:49:08.601Z,2.10
2022-07-25T12:51:36.682Z,1.90
2022-07-25T12:54:04.988Z,2.00
2022-07-25T12:56:35.303Z,1.60
2022-07-25T12:59:03.810Z,1.77
2022-07-25T13:01:32.031Z,1.92
2022-07-25T13:04:00.032Z,1.60
2022-07-25T13:06:34.407Z,1.95
2022-07-25T13:09:05.922Z,1.48
2022-07-25T13:11:35.419Z,1.58
2022-07-25T13:14:03.326Z,1.60
2022-07-25T13:16:31.336Z,1.63
2022-07-25T13:18:59.541Z,1.50
2022-07-25T13:21:27.431Z,1.90
2022-07-25T13:23:55.347Z,1.80
2022-07-25T13:26:23.323Z,1.58
2022-07-25T13:28:56.592Z,1.60
2022-07-25T13:31:28.091Z,1.90
2022-07-25T13:33:56.243Z,1.67
2022-07-25T13:36:24.239Z,1.77
2022-07-25T13:38:52.173Z,1.90
2022-07-25T13:41:20.066Z,1.70
2022-07-25T13:43:49.048Z,1.80
2022-07-25T13:46:18.532Z,1.73
2022-07-25T13:48:46.606Z,1.90
2022-07-25T13:51:14.913Z,2.20
2022-07-25T13:53:44.748Z,1.65
2022-07-25T13:56:14.090Z,1.67
2022-07-25T13:58:43.114Z,2.17
2022-07-25T14:01:12.548Z,1.58
2022-07-25T14:03:41.859Z,2.10
2022-07-25T14:06:12.132Z,1.90
2022-07-25T14:08:41.226Z,2.03
2022-07-25T14:11:09.614Z,1.90
2022-07-25T14:13:38.004Z,2.13
2022-07-25T14:16:06.728Z,2.20
2022-07-25T14:18:34.686Z,1.85
2022-07-25T14:21:04.118Z,1.92
2022-07-25T14:23:32.056Z,1.67
2022-07-25T14:26:00.360Z,1.80
2022-07-25T14:28:28.329Z,1.70
2022-07-25T14:30:56.562Z,1.88
2022-07-25T14:33:24.471Z,1.70
2022-07-25T14:35:52.407Z,1.98
2022-07-25T14:38:21.874Z,1.77
2022-07-25T14:40:49.877Z,1.53
2022-07-25T14:43:17.882Z,1.67
2022-07-25T14:45:45.887Z,2.00
2022-07-25T14:48:13.791Z,1.75
2022-07-25T14:50:41.695Z,1.95
2022-07-25T14:53:09.662Z,1.80
2022-07-25T14:55:39.132Z,1.80
2022-07-25T14:58:07.590Z,1.70
2022-07-25T15:00:35.573Z,1.52
2022-07-25T15:03:03.531Z,1.92
2022-07-25T15:05:31.439Z,1.67
2022-07-25T15:07:59.587Z,2.00
2022-07-25T15:10:27.518Z,1.50
2022-07-25T15:13:20.546Z,1.95
2022-07-25T15:15:44.689Z,2.13
2022-07-25T15:18:14.124Z,1.95
2022-07-25T15:20:42.417Z,2.00
2022-07-25T15:23:10.334Z,2.08
2022-07-25T15:26:01.131Z,1.70
2022-07-25T15:28:27.921Z,1.52
2022-07-25T15:30:56.112Z,1.63
2022-07-25T15:33:24.082Z,1.50
2022-07-25T15:35:52.237Z,1.83
2022-07-25T15:38:20.181Z,1.52
2022-07-25T15:40:48.458Z,1.60
2022-07-25T15:43:16.466Z,1.55
2022-07-25T15:45:46.859Z,1.52
2022-07-25T15:50:45.033Z,1.27
2022-07-25T15:53:13.538Z,1.85
2022-07-25T15:55:42.532Z,1.58
2022-07-25T15:58:12.076Z,1.88
2022-07-25T16:00:40.737Z,1.53
2022-07-25T16:03:11.120Z,1.85
2022-07-25T16:08:08.145Z,1.50
2022-07-25T16:10:36.680Z,1.80
2022-07-25T16:13:04.982Z,1.77
2022-07-25T16:15:32.950Z,1.73
2022-07-25T16:18:02.906Z,1.98
2022-07-25T16:20:33.867Z,1.65
2022-07-25T16:23:02.253Z,1.50
2022-07-25T16:25:30.706Z,1.70
2022-07-25T16:27:59.681Z,1.63
2022-07-25T16:30:27.693Z,1.65
2022-07-25T16:32:55.969Z,1.40
2022-07-25T16:35:24.174Z,1.63
2022-07-25T16:37:53.445Z,1.58
2022-07-25T16:40:22.973Z,1.50
2022-07-25T16:42:55.672Z,1.40
2022-07-25T16:45:23.708Z,1.30
2022-07-25T16:47:51.615Z,1.33
2022-07-25T16:50:19.679Z,1.38
2022-07-25T16:52:48.249Z,1.58
2022-07-25T16:55:17.844Z,1.48
2022-07-25T16:57:45.746Z,1.38
2022-07-25T17:00:14.380Z,1.30
2022-07-25T17:02:43.893Z,1.70
2022-07-25T17:05:11.851Z,1.60
2022-07-25T17:07:40.458Z,1.40
2022-07-25T17:10:09.397Z,1.27
2022-07-25T17:12:38.706Z,1.40
2022-07-25T17:15:07.941Z,1.40
2022-07-25T17:17:35.852Z,1.73
2022-07-25T17:20:04.138Z,1.13
2022-07-25T17:22:32.436Z,1.30
2022-07-25T17:25:00.408Z,1.08
2022-07-25T17:27:28.387Z,1.08
2022-07-25T17:29:57.764Z,1.25
2022-07-25T17:32:29.716Z,1.15
2022-07-25T17:34:58.259Z,1.17
2022-07-25T17:37:27.658Z,1.10
2022-07-25T17:39:55.721Z,1.00
2022-07-25T17:42:23.971Z,1.00
2022-07-25T17:44:52.187Z,1.05
2022-07-25T17:47:21.494Z,1.10
2022-07-25T17:49:51.211Z,0.73
2022-07-25T17:52:19.229Z,1.00
2022-07-25T17:54:47.141Z,0.88
2022-07-25T17:57:15.052Z,0.80
2022-07-25T17:59:43.073Z,1.05
2022-07-25T18:02:11.419Z,0.70
2022-07-25T18:04:40.724Z,1.05
2022-07-25T18:07:08.663Z,0.80
2022-07-25T18:09:36.860Z,0.85
2022-07-25T18:12:05.410Z,0.70
2022-07-25T18:14:34.528Z,0.88
2022-07-25T18:17:02.556Z,0.90
2022-07-25T18:19:32.471Z,0.70
2022-07-25T18:22:01.741Z,0.57
2022-07-25T18:24:30.226Z,0.88
2022-07-25T18:26:58.459Z,1.48
2022-07-25T18:29:26.335Z,0.70
2022-07-25T18:31:54.281Z,0.68
2022-07-25T18:34:22.209Z,0.60
2022-07-25T18:36:50.408Z,0.70
2022-07-25T18:39:19.696Z,0.50
2022-07-25T18:41:47.700Z,1.15
2022-07-25T18:44:15.903Z,0.45
2022-07-25T18:46:45.530Z,0.63
2022-07-25T18:49:14.047Z,0.50
2022-07-25T18:51:42.097Z,0.70
2022-07-25T18:54:10.330Z,0.60
2022-07-25T18:56:39.947Z,0.38
2022-07-25T18:59:08.219Z,0.55
2022-07-25T19:01:37.343Z,0.52
2022-07-25T19:04:06.211Z,0.75
2022-07-25T19:06:34.617Z,0.70
2022-07-25T19:09:02.600Z,0.47
2022-07-25T19:11:30.500Z,0.63
2022-07-25T19:13:59.717Z,0.40
2022-07-25T19:16:27.729Z,0.43
2022-07-25T19:18:55.756Z,0.30
2022-07-25T19:21:23.715Z,0.50
2022-07-25T19:23:51.663Z,0.63
2022-07-25T19:26:20.170Z,0.32
2022-07-25T19:28:48.233Z,0.60
2022-07-25T19:31:17.927Z,0.50
2022-07-25T19:33:46.531Z,0.50
2022-07-25T19:36:14.703Z,0.52
2022-07-25T19:38:42.597Z,0.40
2022-07-25T19:41:10.539Z,0.47
2022-07-25T19:43:38.407Z,0.47
2022-07-25T19:46:06.487Z,0.60
2022-07-25T19:48:35.901Z,0.50
2022-07-25T19:51:03.916Z,0.47
2022-07-25T19:53:32.530Z,0.38
2022-07-25T19:56:01.264Z,0.40
2022-07-25T19:58:29.158Z,0.50
2022-07-25T20:00:57.018Z,0.50
2022-07-25T20:03:24.957Z,0.50
2022-07-25T20:05:54.162Z,0.50
2022-07-25T20:08:22.074Z,0.40
2022-07-25T20:10:50.039Z,1.30
2022-07-25T20:13:18.019Z,0.30
2022-07-25T20:15:45.930Z,0.40
2022-07-25T20:18:18.910Z,0.40
2022-07-25T20:20:47.691Z,0.40
2022-07-25T20:23:17.022Z,0.43
2022-07-25T20:25:45.306Z,0.50
2022-07-25T20:28:13.206Z,0.40
2022-07-25T20:30:41.593Z,0.40
2022-07-25T20:33:10.011Z,0.40
2022-07-25T20:35:38.560Z,0.30
2022-07-25T20:38:09.380Z,0.40
2022-07-25T20:40:46.300Z,0.30
2022-07-25T20:43:16.324Z,0.70
2022-07-25T20:45:44.430Z,0.45
2022-07-25T20:48:12.408Z,0.47
2022-07-25T20:50:41.130Z,0.20
2022-07-25T20:53:09.665Z,0.30
2022-07-25T20:55:39.328Z,0.40
2022-07-25T20:58:07.470Z,0.20
2022-07-25T21:00:35.434Z,0.63
2022-07-25T21:03:03.574Z,0.17
2022-07-25T21:05:31.885Z,0.28
2022-07-25T21:07:59.915Z,0.20
2022-07-25T21:10:28.006Z,0.20
2022-07-25T21:12:57.263Z,0.30
2022-07-25T21:15:25.489Z,0.40
2022-07-25T21:17:53.405Z,0.25
2022-07-25T21:20:21.371Z,0.32
2022-07-25T21:22:49.358Z,0.28
2022-07-25T21:25:17.266Z,0.40
2022-07-25T21:27:45.159Z,0.20
2022-07-25T21:30:15.178Z,0.20
2022-07-25T21:32:43.521Z,0.30
2022-07-25T21:35:12.092Z,0.10
2022-07-25T21:37:40.048Z,0.17
2022-07-25T21:40:09.446Z,0.30
2022-07-25T21:42:37.824Z,0.28
2022-07-25T21:45:06.837Z,0.20
2022-07-25T21:47:36.069Z,0.22
2022-07-25T21:50:24.918Z,0.20
2022-07-25T21:52:53.368Z,0.30
2022-07-25T21:55:21.802Z,0.10
2022-07-25T21:57:51.172Z,0.20
2022-07-25T22:00:20.074Z,0.30
2022-07-25T22:02:49.692Z,0.20
2022-07-25T22:05:19.061Z,0.20
2022-07-25T22:07:48.172Z,0.20
2022-07-25T22:10:18.534Z,0.20
2022-07-25T22:12:47.018Z,0.13
2022-07-25T22:15:15.101Z,0.10
2022-07-25T22:17:48.980Z,0.28
2022-07-25T22:20:19.559Z,0.30
2022-07-25T22:22:47.844Z,0.10
2022-07-25T22:25:15.841Z,0.00
2022-07-25T22:27:43.785Z,0.20
2022-07-25T22:30:18.185Z,0.20
2022-07-25T22:32:47.505Z,0.30
2022-07-25T22:35:15.759Z,0.22
2022-07-25T22:37:45.188Z,0.30
2022-07-25T22:40:14.586Z,0.30
2022-07-25T22:42:42.683Z,0.30
2022-07-25T22:45:11.646Z,0.25
2022-07-25T22:47:39.653Z,0.20
2022-07-25T22:50:09.502Z,0.20
2022-07-25T22:52:37.431Z,0.20
2022-07-25T22:55:07.501Z,0.40
2022-07-25T22:57:37.514Z,0.38
2022-07-25T23:00:08.103Z,0.25
2022-07-25T23:02:36.180Z,0.10
2022-07-25T23:05:04.563Z,0.20
2022-07-25T23:07:33.050Z,0.40
2022-07-25T23:10:01.939Z,0.20
2022-07-25T23:12:31.179Z,0.30
2022-07-25T23:14:59.039Z,0.30
2022-07-25T23:17:26.910Z,0.20
2022-07-25T23:19:57.035Z,0.30
2022-07-25T23:22:26.426Z,0.15
2022-07-25T23:24:54.281Z,0.20
2022-07-25T23:27:22.434Z,0.50
2022-07-25T23:29:51.660Z,0.45
2022-07-25T23:32:19.809Z,0.40
2022-07-25T23:34:47.788Z,0.10
2022-07-25T23:37:15.685Z,0.32
2022-07-25T23:39:43.706Z,0.50
2022-07-25T23:42:11.539Z,0.40
2022-07-25T23:44:39.514Z,0.15
2022-07-25T23:47:10.023Z,0.20
2022-07-25T23:49:38.638Z,0.22
2022-07-25T23:52:06.779Z,0.40
2022-07-25T23:54:34.815Z,0.50
2022-07-25T23:57:02.896Z,0.30
2022-07-25T23:59:30.811Z,0.50
